createdAt,value
2018-10-18T00:00:30.957Z,17.10
2018-10-18T00:02:58.149Z,18.10
2018-10-18T00:05:25.396Z,18.10
2018-10-18T00:07:52.592Z,18.07
2018-10-18T00:10:19.719Z,17.73
2018-10-18T00:12:46.885Z,18.90
2018-10-18T00:15:14.056Z,18.60
2018-10-18T00:17:46.291Z,19.77
2018-10-18T00:20:14.309Z,18.87
2018-10-18T00:22:41.614Z,19.63
2018-10-18T00:25:08.847Z,21.20
2018-10-18T00:27:36.242Z,20.17
2018-10-18T00:30:03.487Z,20.60
2018-10-18T00:32:30.659Z,20.20
2018-10-18T00:34:57.831Z,20.93
2018-10-18T00:37:24.995Z,21.37
2018-10-18T00:39:52.157Z,21.10
2018-10-18T00:42:19.319Z,21.17
2018-10-18T00:44:46.486Z,20.97
2018-10-18T00:47:13.678Z,21.00
2018-10-18T00:49:40.851Z,21.43
2018-10-18T00:52:08.118Z,20.93
2018-10-18T00:54:35.294Z,21.10
2018-10-18T00:57:02.467Z,22.73
2018-10-18T00:59:29.645Z,20.97
2018-10-18T01:01:56.826Z,20.50
2018-10-18T01:04:23.998Z,20.53
2018-10-18T01:06:51.166Z,19.77
2018-10-18T01:09:18.325Z,19.80
2018-10-18T01:11:45.494Z,20.50
2018-10-18T01:14:12.707Z,20.40
2018-10-18T01:16:40.139Z,21.10
2018-10-18T01:19:07.314Z,21.00
2018-10-18T01:21:34.483Z,22.20
2018-10-18T01:24:01.703Z,22.37
2018-10-18T01:26:28.852Z,24.13
2018-10-18T01:28:56.094Z,23.17
2018-10-18T01:31:23.270Z,23.37
2018-10-18T01:33:50.435Z,23.70
2018-10-18T01:36:17.657Z,23.43
2018-10-18T01:38:44.799Z,26.77
2018-10-18T01:41:11.967Z,25.63
2018-10-18T01:43:39.139Z,26.70
2018-10-18T01:46:06.661Z,26.67
2018-10-18T01:48:33.848Z,27.60
2018-10-18T01:51:01.036Z,28.60
2018-10-18T01:53:28.195Z,29.23
2018-10-18T01:55:55.411Z,28.90
2018-10-18T01:58:22.531Z,29.70
2018-10-18T02:00:49.750Z,29.40
2018-10-18T02:03:16.960Z,30.17
2018-10-18T02:05:44.163Z,31.50
2018-10-18T02:08:11.427Z,32.30
2018-10-18T02:10:38.498Z,32.17
2018-10-18T02:13:05.731Z,33.87
2018-10-18T02:15:32.932Z,32.53
2018-10-18T02:18:00.175Z,32.27
2018-10-18T02:20:27.282Z,33.27
2018-10-18T02:22:54.467Z,33.50
2018-10-18T02:25:21.640Z,33.13
2018-10-18T02:27:48.799Z,33.60
2018-10-18T02:30:16.093Z,33.77
2018-10-18T02:32:43.163Z,32.03
2018-10-18T02:35:10.379Z,32.17
2018-10-18T02:37:37.588Z,32.47
2018-10-18T02:40:04.914Z,33.30
2018-10-18T02:42:32.093Z,32.83
2018-10-18T02:44:59.290Z,33.60
2018-10-18T02:47:26.470Z,33.50
2018-10-18T02:49:53.638Z,32.60
2018-10-18T02:52:20.811Z,32.77
2018-10-18T02:54:47.987Z,32.87
2018-10-18T02:57:15.155Z,32.30
2018-10-18T02:59:42.327Z,31.67
2018-10-18T03:02:09.818Z,32.70
2018-10-18T03:04:36.998Z,32.13
2018-10-18T03:07:04.465Z,33.00
2018-10-18T03:09:31.685Z,32.10
2018-10-18T03:11:58.852Z,31.80
2018-10-18T03:14:26.011Z,32.87
2018-10-18T03:16:53.253Z,31.97
2018-10-18T03:19:20.423Z,32.33
2018-10-18T03:21:47.602Z,32.80
2018-10-18T03:24:14.867Z,32.57
2018-10-18T03:26:41.997Z,32.37
2018-10-18T03:29:09.181Z,29.50
2018-10-18T03:31:36.390Z,30.10
2018-10-18T03:34:03.563Z,31.90
2018-10-18T03:36:30.751Z,30.90
2018-10-18T03:38:57.948Z,31.73
2018-10-18T03:41:25.170Z,31.10
2018-10-18T03:43:52.269Z,34.07
2018-10-18T03:46:19.438Z,32.63
2018-10-18T03:48:46.639Z,33.50
2018-10-18T03:51:13.838Z,34.50
2018-10-18T03:53:41.058Z,33.57
2018-10-18T03:56:08.267Z,32.90
2018-10-18T03:58:35.471Z,34.63
2018-10-18T04:01:02.643Z,36.80
2018-10-18T04:03:29.921Z,34.90
2018-10-18T04:05:57.124Z,37.03
2018-10-18T04:08:24.258Z,36.97
2018-10-18T04:10:51.438Z,34.23
2018-10-18T04:13:18.682Z,34.70
2018-10-18T04:15:45.826Z,34.23
2018-10-18T04:18:13.059Z,35.40
2018-10-18T04:20:40.225Z,38.67
2018-10-18T04:23:07.385Z,36.20
2018-10-18T04:25:34.674Z,36.47
2018-10-18T04:28:01.792Z,35.13
2018-10-18T04:30:28.963Z,35.37
2018-10-18T04:32:56.135Z,35.67
2018-10-18T04:35:23.299Z,35.33
2018-10-18T04:37:50.845Z,35.47
2018-10-18T04:40:18.062Z,39.27
2018-10-18T04:42:45.234Z,37.40
2018-10-18T04:45:12.410Z,36.77
2018-10-18T04:47:39.681Z,37.20
2018-10-18T04:50:06.911Z,37.57
2018-10-18T04:52:34.075Z,40.20
2018-10-18T04:55:01.262Z,38.70
2018-10-18T04:57:28.415Z,38.17
2018-10-18T04:59:55.602Z,40.50
2018-10-18T05:02:22.884Z,41.47
2018-10-18T05:05:57.406Z,40.07
2018-10-18T05:08:25.503Z,40.03
2018-10-18T05:10:52.933Z,42.00
2018-10-18T05:13:20.152Z,41.87
2018-10-18T05:15:47.287Z,41.77
2018-10-18T05:18:14.507Z,40.60
2018-10-18T05:20:41.677Z,40.43
2018-10-18T05:23:09.156Z,42.20
2018-10-18T05:25:36.396Z,42.37
2018-10-18T05:28:04.089Z,41.67
2018-10-18T05:30:31.265Z,37.13
2018-10-18T05:32:58.453Z,40.10
2018-10-18T05:35:25.673Z,40.23
2018-10-18T05:37:52.910Z,37.60
2018-10-18T05:40:20.129Z,37.90
2018-10-18T05:42:47.461Z,35.90
2018-10-18T05:45:14.618Z,36.53
2018-10-18T05:47:41.783Z,38.43
2018-10-18T05:50:09.784Z,35.03
2018-10-18T05:52:37.139Z,35.73
2018-10-18T05:55:05.002Z,36.33
2018-10-18T05:57:32.137Z,35.80
2018-10-18T05:59:59.328Z,34.57
2018-10-18T06:02:26.502Z,35.93
2018-10-18T06:04:53.670Z,35.13
2018-10-18T06:07:20.850Z,38.97
2018-10-18T06:09:48.051Z,38.83
2018-10-18T06:12:15.190Z,37.80
2018-10-18T06:14:42.372Z,37.47
2018-10-18T06:17:09.526Z,37.97
2018-10-18T06:19:36.713Z,39.07
2018-10-18T06:22:04.066Z,39.10
2018-10-18T06:24:31.243Z,37.30
2018-10-18T06:26:58.412Z,38.57
2018-10-18T06:29:25.608Z,37.70
2018-10-18T06:31:52.774Z,39.33
2018-10-18T06:34:19.954Z,40.50
2018-10-18T06:36:47.143Z,38.20
2018-10-18T06:39:14.357Z,39.63
2018-10-18T06:41:41.764Z,37.23
2018-10-18T06:44:09.080Z,41.00
2018-10-18T06:46:36.274Z,40.00
2018-10-18T06:49:03.632Z,39.60
2018-10-18T06:51:30.671Z,38.67
2018-10-18T06:53:57.896Z,38.83
2018-10-18T06:56:25.058Z,38.00
2018-10-18T06:58:52.229Z,39.17
2018-10-18T07:01:19.418Z,40.73
2018-10-18T07:03:46.622Z,38.70
2018-10-18T07:06:13.928Z,38.70
2018-10-18T07:08:40.993Z,41.80
2018-10-18T07:11:08.268Z,40.13
2018-10-18T07:13:35.415Z,40.30
2018-10-18T07:16:02.621Z,42.90
2018-10-18T07:18:29.798Z,40.70
2018-10-18T07:20:56.981Z,43.23
2018-10-18T07:23:24.154Z,43.43
2018-10-18T07:25:51.346Z,43.50
2018-10-18T07:28:18.552Z,44.57
2018-10-18T07:30:45.721Z,44.37
2018-10-18T07:33:12.949Z,43.27
2018-10-18T07:35:42.200Z,42.37
2018-10-18T07:38:09.353Z,42.57
2018-10-18T07:40:36.537Z,41.57
2018-10-18T07:43:03.711Z,41.10
2018-10-18T07:45:30.894Z,42.10
2018-10-18T07:47:58.091Z,42.17
2018-10-18T07:50:25.275Z,44.13
2018-10-18T07:52:52.502Z,44.97
2018-10-18T07:55:19.646Z,44.20
2018-10-18T07:57:46.830Z,44.00
2018-10-18T08:00:15.254Z,41.50
2018-10-18T08:02:43.042Z,43.37
2018-10-18T08:05:10.935Z,41.57
2018-10-18T08:07:38.377Z,40.77
2018-10-18T08:10:07.065Z,43.07
2018-10-18T08:12:34.202Z,40.00
2018-10-18T08:15:01.389Z,42.87
2018-10-18T08:17:28.671Z,43.57
2018-10-18T08:19:55.815Z,40.23
2018-10-18T08:22:23.056Z,40.50
2018-10-18T08:24:50.216Z,40.10
2018-10-18T08:27:17.402Z,39.50
2018-10-18T08:29:44.588Z,39.33
2018-10-18T08:32:11.806Z,37.73
2018-10-18T08:34:39.006Z,38.50
2018-10-18T08:37:06.226Z,35.40
2018-10-18T08:39:33.390Z,36.20
2018-10-18T08:42:00.715Z,37.40
2018-10-18T08:44:27.966Z,37.93
2018-10-18T08:46:55.071Z,37.10
2018-10-18T08:49:22.304Z,36.00
2018-10-18T08:51:49.459Z,36.70
2018-10-18T08:54:16.641Z,35.87
2018-10-18T08:56:43.834Z,33.80
2018-10-18T08:59:11.160Z,35.47
2018-10-18T09:01:38.297Z,35.47
2018-10-18T09:04:05.470Z,36.20
2018-10-18T09:06:32.658Z,35.77
2018-10-18T09:09:00.016Z,35.07
2018-10-18T09:11:27.159Z,35.00
2018-10-18T09:13:54.321Z,33.80
2018-10-18T09:16:21.521Z,33.27
2018-10-18T09:18:48.689Z,34.20
2018-10-18T09:21:15.896Z,33.83
2018-10-18T09:23:43.124Z,33.83
2018-10-18T09:26:10.253Z,32.77
2018-10-18T09:28:37.435Z,31.57
2018-10-18T09:31:04.773Z,33.20
2018-10-18T09:33:31.851Z,30.37
2018-10-18T09:35:59.039Z,31.23
2018-10-18T09:38:26.391Z,31.50
2018-10-18T09:40:53.410Z,32.30
2018-10-18T09:43:20.599Z,31.27
2018-10-18T09:45:47.770Z,32.20
2018-10-18T09:48:15.021Z,31.97
2018-10-18T09:50:42.227Z,28.20
2018-10-18T09:53:09.412Z,29.00
2018-10-18T09:55:36.622Z,28.43
2018-10-18T09:58:03.773Z,28.47
2018-10-18T10:00:36.486Z,28.90
2018-10-18T10:03:09.211Z,24.53
2018-10-18T10:05:36.402Z,23.10
2018-10-18T10:08:03.622Z,23.27
2018-10-18T10:10:30.786Z,24.37
2018-10-18T10:12:58.008Z,24.50
2018-10-18T10:15:25.153Z,23.27
2018-10-18T10:17:52.347Z,23.30
2018-10-18T10:20:19.509Z,23.57
2018-10-18T10:22:46.702Z,22.73
2018-10-18T10:25:13.993Z,23.50
2018-10-18T10:27:41.207Z,22.77
2018-10-18T10:30:08.844Z,22.97
2018-10-18T10:32:36.031Z,22.30
2018-10-18T10:35:03.326Z,22.93
2018-10-18T10:37:30.433Z,22.67
2018-10-18T10:39:57.650Z,20.87
2018-10-18T10:42:24.845Z,23.43
2018-10-18T10:44:52.071Z,23.70
2018-10-18T10:47:19.189Z,23.30
2018-10-18T10:49:46.383Z,23.50
2018-10-18T10:52:13.625Z,22.97
2018-10-18T10:54:40.742Z,23.83
2018-10-18T10:57:07.947Z,24.30
2018-10-18T10:59:35.162Z,23.97
2018-10-18T11:02:02.409Z,23.00
2018-10-18T11:04:29.566Z,22.70
2018-10-18T11:06:56.734Z,24.50
2018-10-18T11:09:23.923Z,23.63
2018-10-18T11:11:51.157Z,24.13
2018-10-18T11:14:18.352Z,24.40
2018-10-18T11:16:45.446Z,23.50
2018-10-18T11:19:12.650Z,22.90
2018-10-18T11:21:39.989Z,24.03
2018-10-18T11:24:07.145Z,22.60
2018-10-18T11:26:34.336Z,22.43
2018-10-18T11:29:01.559Z,20.93
2018-10-18T11:31:28.750Z,21.70
2018-10-18T11:33:55.930Z,19.70
2018-10-18T11:36:23.123Z,21.43
2018-10-18T11:38:50.315Z,22.37
2018-10-18T11:41:17.482Z,21.17
2018-10-18T11:43:44.642Z,21.23
2018-10-18T11:46:11.871Z,22.00
2018-10-18T11:48:39.094Z,21.87
2018-10-18T11:51:06.312Z,22.30
2018-10-18T11:53:33.485Z,23.27
2018-10-18T11:56:00.694Z,21.87
2018-10-18T11:58:27.869Z,22.97
2018-10-18T12:00:55.045Z,21.63
2018-10-18T12:03:22.238Z,23.73
2018-10-18T12:05:49.430Z,22.63
2018-10-18T12:08:16.697Z,23.30
2018-10-18T12:10:43.830Z,23.93
2018-10-18T12:13:11.054Z,22.60
2018-10-18T12:15:38.231Z,23.40
2018-10-18T12:18:05.427Z,23.93
2018-10-18T12:20:32.609Z,24.50
2018-10-18T12:22:59.828Z,23.60
2018-10-18T12:25:26.984Z,24.20
2018-10-18T12:27:54.167Z,24.10
2018-10-18T12:30:21.350Z,24.57
2018-10-18T12:32:48.525Z,23.23
2018-10-18T12:35:15.806Z,24.07
2018-10-18T12:37:42.954Z,23.73
2018-10-18T12:40:10.172Z,23.70
2018-10-18T12:42:38.944Z,23.90
2018-10-18T12:45:07.168Z,23.83
2018-10-18T12:47:34.333Z,23.70
2018-10-18T12:50:01.554Z,22.20
2018-10-18T12:52:28.694Z,22.93
2018-10-18T12:54:55.912Z,22.63
2018-10-18T12:57:23.225Z,22.90
2018-10-18T12:59:50.435Z,21.17
2018-10-18T13:02:17.666Z,21.00
2018-10-18T13:04:44.860Z,20.97
2018-10-18T13:07:12.013Z,20.20
2018-10-18T13:09:39.186Z,19.67
2018-10-18T13:12:06.396Z,19.53
2018-10-18T13:14:33.518Z,20.10
2018-10-18T13:17:00.685Z,20.30
2018-10-18T13:19:27.850Z,18.87
2018-10-18T13:21:55.018Z,21.77
2018-10-18T13:24:22.475Z,20.40
2018-10-18T13:26:49.696Z,18.37
2018-10-18T13:29:16.900Z,18.37
2018-10-18T13:31:44.054Z,18.30
2018-10-18T13:34:11.296Z,18.33
2018-10-18T13:36:38.389Z,17.80
2018-10-18T13:39:08.227Z,17.10
2018-10-18T13:41:35.317Z,18.77
2018-10-18T13:44:02.534Z,19.07
2018-10-18T13:46:29.729Z,18.43
2018-10-18T13:48:56.867Z,18.30
2018-10-18T13:51:24.042Z,19.03
2018-10-18T13:53:51.248Z,17.20
2018-10-18T13:56:18.476Z,17.70
2018-10-18T13:58:45.607Z,16.50
2018-10-18T14:01:12.787Z,15.63
2018-10-18T14:03:39.959Z,15.37
2018-10-18T14:06:07.225Z,14.80
2018-10-18T14:08:34.461Z,14.03
2018-10-18T14:11:01.635Z,12.93
2018-10-18T14:13:28.779Z,12.03
2018-10-18T14:15:55.946Z,12.47
2018-10-18T14:18:23.126Z,12.73
2018-10-18T14:20:50.334Z,11.93
2018-10-18T14:23:17.594Z,12.43
2018-10-18T14:25:44.706Z,11.60
2018-10-18T14:28:11.914Z,11.53
2018-10-18T14:30:39.092Z,11.60
2018-10-18T14:33:06.260Z,11.53
2018-10-18T14:35:33.441Z,12.37
2018-10-18T14:38:00.604Z,11.40
2018-10-18T14:40:27.795Z,12.47
2018-10-18T14:42:54.990Z,13.03
2018-10-18T14:45:22.165Z,12.73
2018-10-18T14:47:49.440Z,12.20
2018-10-18T14:50:16.724Z,11.40
2018-10-18T14:52:43.899Z,10.53
2018-10-18T14:55:11.086Z,11.20
2018-10-18T14:57:38.590Z,12.33
2018-10-18T15:00:06.987Z,12.50
2018-10-18T15:02:34.162Z,11.50
2018-10-18T15:05:01.392Z,11.10
2018-10-18T15:07:28.677Z,10.13
2018-10-18T15:09:55.851Z,9.93
2018-10-18T15:12:23.035Z,9.43
2018-10-18T15:14:50.190Z,9.10
2018-10-18T15:17:17.419Z,8.57
2018-10-18T15:19:44.515Z,8.07
2018-10-18T15:22:11.715Z,7.83
2018-10-18T15:24:38.874Z,7.27
2018-10-18T15:27:06.353Z,6.63
2018-10-18T15:29:33.288Z,6.80
2018-10-18T15:32:00.554Z,6.53
2018-10-18T15:34:27.702Z,6.60
2018-10-18T15:36:54.866Z,6.13
2018-10-18T15:39:22.136Z,6.17
2018-10-18T15:41:49.218Z,5.50
2018-10-18T15:44:16.434Z,6.30
2018-10-18T15:46:43.525Z,5.60
2018-10-18T15:49:10.686Z,5.63
2018-10-18T15:51:37.858Z,6.13
2018-10-18T15:54:05.349Z,5.23
2018-10-18T15:56:32.419Z,5.57
2018-10-18T15:58:59.627Z,6.00
2018-10-18T16:01:26.770Z,5.43
2018-10-18T16:03:53.983Z,5.73
2018-10-18T16:06:21.216Z,5.87
2018-10-18T16:08:48.386Z,5.60
2018-10-18T16:11:15.569Z,5.50
2018-10-18T16:13:42.629Z,6.53
2018-10-18T16:16:09.781Z,6.47
2018-10-18T16:18:37.038Z,7.87
2018-10-18T16:21:04.438Z,7.60
2018-10-18T16:23:31.774Z,8.20
2018-10-18T16:25:59.078Z,7.57
2018-10-18T16:28:26.147Z,7.10
2018-10-18T16:30:53.315Z,6.27
2018-10-18T16:33:20.491Z,5.70
2018-10-18T16:35:48.526Z,5.80
2018-10-18T16:38:15.732Z,5.67
2018-10-18T16:40:42.992Z,4.90
2018-10-18T16:43:10.406Z,5.20
2018-10-18T16:45:37.572Z,5.33
2018-10-18T16:48:04.781Z,5.30
2018-10-18T16:50:32.120Z,6.10
2018-10-18T16:52:59.270Z,5.67
2018-10-18T16:55:26.430Z,5.80
2018-10-18T16:57:53.649Z,7.20
2018-10-18T17:00:20.882Z,6.40
2018-10-18T17:02:47.933Z,5.93
2018-10-18T17:05:15.106Z,5.30
2018-10-18T17:07:42.277Z,5.30
2018-10-18T17:10:09.532Z,5.60
2018-10-18T17:12:36.657Z,6.00
2018-10-18T17:15:03.989Z,5.27
2018-10-18T17:17:31.232Z,4.97
2018-10-18T17:19:58.426Z,4.97
2018-10-18T17:22:25.547Z,4.70
2018-10-18T17:24:52.711Z,4.60
2018-10-18T17:27:19.972Z,4.27
2018-10-18T17:29:47.042Z,4.53
2018-10-18T17:32:14.282Z,4.20
2018-10-18T17:34:41.388Z,4.63
2018-10-18T17:37:08.708Z,4.40
2018-10-18T17:39:35.866Z,4.13
2018-10-18T17:42:03.148Z,4.27
2018-10-18T17:44:30.331Z,4.70
2018-10-18T17:46:57.512Z,4.23
2018-10-18T17:49:24.685Z,4.57
2018-10-18T17:51:51.884Z,4.60
2018-10-18T17:54:19.107Z,3.80
2018-10-18T17:56:46.338Z,4.13
2018-10-18T17:59:13.510Z,4.70
2018-10-18T18:01:40.707Z,4.37
2018-10-18T18:04:07.916Z,4.47
2018-10-18T18:06:35.229Z,4.47
2018-10-18T18:09:02.367Z,5.00
2018-10-18T18:11:29.554Z,4.90
2018-10-18T18:13:56.711Z,5.37
2018-10-18T18:16:23.883Z,5.37
2018-10-18T18:18:51.093Z,5.40
2018-10-18T18:21:18.281Z,5.73
2018-10-18T18:23:45.455Z,6.10
2018-10-18T18:26:12.653Z,6.10
2018-10-18T18:28:39.834Z,6.30
2018-10-18T18:31:07.021Z,6.37
2018-10-18T18:33:34.134Z,6.50
2018-10-18T18:36:01.303Z,6.53
2018-10-18T18:38:28.445Z,6.40
2018-10-18T18:40:55.586Z,6.70
2018-10-18T18:43:22.768Z,6.73
2018-10-18T18:45:49.948Z,7.90
2018-10-18T18:48:17.211Z,7.47
2018-10-18T18:50:44.470Z,8.60
2018-10-18T18:53:11.716Z,7.97
2018-10-18T18:55:38.778Z,8.47
2018-10-18T18:58:05.923Z,8.10
2018-10-18T19:00:33.087Z,8.03
2018-10-18T19:03:00.262Z,8.50
2018-10-18T19:05:27.412Z,8.90
2018-10-18T19:07:54.587Z,7.60
2018-10-18T19:10:21.733Z,7.23
2018-10-18T19:12:48.890Z,7.03
2018-10-18T19:15:16.074Z,7.63
2018-10-18T19:17:43.203Z,7.90
2018-10-18T19:20:10.354Z,7.27
2018-10-18T19:22:37.628Z,6.87
2018-10-18T19:25:05.315Z,6.33
2018-10-18T19:27:32.550Z,6.17
2018-10-18T19:29:59.724Z,6.00
2018-10-18T19:32:26.879Z,5.73
2018-10-18T19:34:54.043Z,5.83
2018-10-18T19:37:21.234Z,5.93
2018-10-18T19:39:48.374Z,5.77
2018-10-18T19:42:15.575Z,5.50
2018-10-18T19:44:42.742Z,7.13
2018-10-18T19:47:09.943Z,6.33
2018-10-18T19:49:37.090Z,6.90
2018-10-18T19:52:04.563Z,7.10
2018-10-18T19:54:31.669Z,7.80
2018-10-18T19:56:58.832Z,7.20
2018-10-18T19:59:25.986Z,8.67
2018-10-18T20:01:53.218Z,8.50
2018-10-18T20:04:20.402Z,7.90
2018-10-18T20:06:47.557Z,6.90
2018-10-18T20:09:14.714Z,7.23
2018-10-18T20:11:42.262Z,7.90
2018-10-18T20:14:09.528Z,7.60
2018-10-18T20:16:36.861Z,8.77
2018-10-18T20:19:04.530Z,8.77
2018-10-18T20:21:31.678Z,9.47
2018-10-18T20:23:58.865Z,9.57
2018-10-18T20:26:26.156Z,9.47
2018-10-18T20:28:53.222Z,10.60
2018-10-18T20:31:20.374Z,10.60
2018-10-18T20:33:47.741Z,14.30
2018-10-18T20:36:14.915Z,12.33
2018-10-18T20:38:42.088Z,10.70
2018-10-18T20:41:09.312Z,8.70
2018-10-18T20:43:36.441Z,8.40
2018-10-18T20:46:03.706Z,8.60
2018-10-18T20:48:30.819Z,8.60
2018-10-18T20:50:58.009Z,8.90
2018-10-18T20:53:25.126Z,8.60
2018-10-18T20:55:52.275Z,8.03
2018-10-18T20:58:19.427Z,8.10
2018-10-18T21:00:46.578Z,8.10
2018-10-18T21:03:13.743Z,8.67
2018-10-18T21:05:40.890Z,8.83
2018-10-18T21:08:08.037Z,8.30
2018-10-18T21:10:35.209Z,8.50
2018-10-18T21:13:02.431Z,8.70
2018-10-18T21:15:29.515Z,8.07
2018-10-18T21:17:56.713Z,8.50
2018-10-18T21:20:23.842Z,7.93
2018-10-18T21:22:50.999Z,8.10
2018-10-18T21:25:18.210Z,8.70
2018-10-18T21:27:45.515Z,9.17
2018-10-18T21:30:12.693Z,9.90
2018-10-18T21:32:39.954Z,10.80
2018-10-18T21:35:07.168Z,11.60
2018-10-18T21:37:34.276Z,11.60
2018-10-18T21:40:01.455Z,11.97
2018-10-18T21:42:28.613Z,11.13
2018-10-18T21:44:55.904Z,11.70
2018-10-18T21:47:23.123Z,13.40
2018-10-18T21:49:50.278Z,17.13
2018-10-18T21:52:17.455Z,19.00
2018-10-18T21:54:44.627Z,23.07
2018-10-18T21:57:11.866Z,18.20
2018-10-18T21:59:38.946Z,17.03
2018-10-18T22:02:06.105Z,17.10
2018-10-18T22:04:33.271Z,16.00
2018-10-18T22:07:00.423Z,14.23
2018-10-18T22:09:27.581Z,13.90
2018-10-18T22:11:54.738Z,13.10
2018-10-18T22:14:21.913Z,13.07
2018-10-18T22:16:49.050Z,13.00
2018-10-18T22:19:16.199Z,12.50
2018-10-18T22:21:43.357Z,12.27
2018-10-18T22:24:11.123Z,11.37
2018-10-18T22:26:38.285Z,11.77
2018-10-18T22:29:05.819Z,10.07
2018-10-18T22:31:32.929Z,10.00
2018-10-18T22:34:00.074Z,9.60
2018-10-18T22:36:27.241Z,9.07
2018-10-18T22:38:54.657Z,9.93
2018-10-18T22:41:21.914Z,9.47
2018-10-18T22:43:49.065Z,9.40
2018-10-18T22:46:16.233Z,9.50
2018-10-18T22:48:43.391Z,9.70
2018-10-18T22:51:10.617Z,9.80
2018-10-18T22:53:37.714Z,10.30
2018-10-18T22:56:04.863Z,9.17
2018-10-18T22:58:32.023Z,10.23
2018-10-18T23:00:59.178Z,9.00
2018-10-18T23:03:26.330Z,9.20
2018-10-18T23:05:53.475Z,8.80
2018-10-18T23:08:20.644Z,8.60
2018-10-18T23:10:47.793Z,10.07
2018-10-18T23:13:14.967Z,10.30
2018-10-18T23:15:42.122Z,10.40
2018-10-18T23:18:10.202Z,10.00
2018-10-18T23:20:37.934Z,10.20
2018-10-18T23:23:05.455Z,10.70
2018-10-18T23:25:32.606Z,9.90
2018-10-18T23:27:59.758Z,10.67
2018-10-18T23:30:26.925Z,10.03
2018-10-18T23:32:54.239Z,9.73
2018-10-18T23:35:21.349Z,10.57
2018-10-18T23:37:48.621Z,9.03
2018-10-18T23:40:15.775Z,9.53
2018-10-18T23:42:42.952Z,9.60
2018-10-18T23:45:10.370Z,9.90
2018-10-18T23:47:37.495Z,9.70
2018-10-18T23:50:04.855Z,8.43
2018-10-18T23:52:32.034Z,9.70
2018-10-18T23:54:59.254Z,9.33
2018-10-18T23:57:26.437Z,9.13
2018-10-18T23:59:53.637Z,8.43
